Time;durP1;ratioP1;P1;durP2;ratioP2;P2;SDS_P1;SDS_P2;PMS_P1;PMS_P2;Temp;Humidity;BMP_temperature;BMP_pressure;BME280_temperature;BME280_humidity;BME280_pressure;Samples;Min_cycle;Max_cycle;Signal;HPM_P1;HPM_P2
2021/12/03 00:00:57;;;;;;;16.52;12.38;;;;;;;15.86;45.01;92155.75;4957525;28;20035;-88
2021/12/03 00:03:22;;;;;;;16.48;12.40;;;;;;;15.87;45.21;92154.50;4980065;28;20050;-89
2021/12/03 00:05:49;;;;;;;16.40;12.25;;;;;;;15.84;45.21;92161.72;4965973;28;20041;-90
2021/12/03 00:08:14;;;;;;;17.88;13.30;;;;;;;15.92;45.13;92162.56;4961641;28;20449;-87
2021/12/03 00:10:40;;;;;;;16.55;12.23;;;;;;;15.86;45.25;92169.38;4964688;28;20061;-88
2021/12/03 00:13:06;;;;;;;20.27;14.13;;;;;;;15.88;44.93;92173.03;4962780;28;20038;-88
2021/12/03 00:15:31;;;;;;;17.55;11.48;;;;;;;15.79;45.06;92189.09;4991967;28;20520;-88
2021/12/03 00:17:57;;;;;;;14.07;11.85;;;;;;;15.86;44.90;92189.19;4999402;28;20045;-93
2021/12/03 00:20:24;;;;;;;15.43;12.05;;;;;;;15.94;44.79;92194.75;5002850;28;20046;-89
2021/12/03 00:22:51;;;;;;;19.17;12.98;;;;;;;15.90;45.10;92186.88;5032992;23;20226;-87
2021/12/03 00:25:16;;;;;;;17.05;12.60;;;;;;;15.82;44.91;92188.03;4998433;28;20034;-87
2021/12/03 00:27:42;;;;;;;16.40;12.57;;;;;;;15.80;45.18;92196.75;4996889;28;20038;-88
2021/12/03 00:30:09;;;;;;;17.35;12.48;;;;;;;15.78;45.16;92199.25;4985018;28;20038;-88
2021/12/03 00:32:35;;;;;;;14.25;10.32;;;;;;;15.81;45.33;92205.63;4982182;28;20078;-87
2021/12/03 00:35:00;;;;;;;14.23;10.90;;;;;;;15.79;45.23;92208.16;4986019;28;20579;-87
2021/12/03 00:37:26;;;;;;;20.10;14.88;;;;;;;15.85;45.13;92211.50;4979169;28;20034;-87
2021/12/03 00:39:51;;;;;;;16.42;12.43;;;;;;;15.83;45.11;92227.66;5009347;28;20157;-88
2021/12/03 00:42:18;;;;;;;14.27;10.60;;;;;;;15.82;45.20;92229.63;4978277;28;20038;-87
2021/12/03 00:44:48;;;;;;;14.43;11.45;;;;;;;15.80;45.01;92237.63;4989977;28;20035;-87
2021/12/03 00:47:14;;;;;;;15.20;10.48;;;;;;;15.76;44.87;92232.47;4990722;28;20038;-88
2021/12/03 00:49:40;;;;;;;14.65;10.88;;;;;;;15.85;44.85;92234.03;5004150;28;20444;-87
2021/12/03 00:52:06;;;;;;;17.00;13.10;;;;;;;15.87;45.08;92239.72;5004885;28;20030;-89
2021/12/03 00:54:31;;;;;;;16.67;11.32;;;;;;;15.88;45.13;92232.28;4983007;28;20286;-87
2021/12/03 00:56:57;;;;;;;14.00;9.80;;;;;;;15.90;44.88;92232.47;4998558;28;20049;-87
2021/12/03 00:59:22;;;;;;;12.95;9.93;;;;;;;15.87;44.90;92245.16;4979261;28;20080;-88
2021/12/03 01:01:48;;;;;;;15.18;11.13;;;;;;;15.84;45.07;92246.19;4985100;28;20034;-87
2021/12/03 01:04:13;;;;;;;13.13;10.35;;;;;;;15.80;45.26;92251.25;4977588;28;20034;-87
2021/12/03 01:06:38;;;;;;;11.10;9.57;;;;;;;15.77;45.11;92253.03;4978434;28;20025;-88
2021/12/03 01:09:04;;;;;;;13.05;10.20;;;;;;;15.77;45.38;92246.84;4977545;28;20393;-87
2021/12/03 01:11:29;;;;;;;12.38;10.15;;;;;;;15.71;45.61;92236.03;4993002;28;20045;-87
2021/12/03 01:13:59;;;;;;;13.15;10.05;;;;;;;15.76;45.13;92251.53;4978438;28;20038;-87
2021/12/03 01:16:25;;;;;;;14.88;11.35;;;;;;;15.76;44.97;92250.81;4990534;28;20046;-87
2021/12/03 01:18:50;;;;;;;14.60;10.57;;;;;;;15.73;45.06;92258.03;4997947;23;20062;-87
2021/12/03 01:21:16;;;;;;;12.48;9.88;;;;;;;15.72;45.44;92261.28;4992950;28;20382;-88
2021/12/03 01:23:41;;;;;;;10.85;8.95;;;;;;;15.75;44.80;92266.44;5028243;28;20030;-87
2021/12/03 01:26:06;;;;;;;16.10;11.65;;;;;;;15.71;45.13;92270.72;5029131;28;20046;-87
2021/12/03 01:28:32;;;;;;;10.88;8.32;;;;;;;15.79;44.95;92273.56;5027956;28;20039;-87
2021/12/03 01:30:58;;;;;;;13.70;10.23;;;;;;;15.80;45.01;92270.31;4978746;28;20130;-88
2021/12/03 01:33:23;;;;;;;13.27;10.27;;;;;;;15.74;45.19;92273.13;4960251;28;20046;-87
2021/12/03 01:35:49;;;;;;;14.75;10.65;;;;;;;15.86;44.96;92278.38;4976926;28;20049;-87
2021/12/03 01:38:14;;;;;;;12.32;8.60;;;;;;;15.77;44.89;92282.25;4959878;28;20409;-88
2021/12/03 01:40:41;;;;;;;11.52;9.18;;;;;;;15.78;44.84;92286.44;4986469;23;20054;-87
2021/12/03 01:43:06;;;;;;;13.43;9.57;;;;;;;15.76;44.90;92288.97;5010842;28;20038;-87
2021/12/03 01:45:33;;;;;;;14.73;11.00;;;;;;;15.72;45.38;92291.25;4992651;28;20112;-87
2021/12/03 01:47:59;;;;;;;12.57;8.90;;;;;;;15.73;45.13;92296.19;5017628;28;20074;-88
2021/12/03 01:50:41;;;;;;;12.40;8.38;;;;;;;15.75;45.13;92304.56;4973799;28;20452;-88
2021/12/03 01:53:07;;;;;;;11.07;8.90;;;;;;;15.76;45.06;92310.75;4978890;28;20049;-87
2021/12/03 01:55:32;;;;;;;15.05;11.20;;;;;;;15.76;45.15;92313.47;4991660;28;20439;-88
2021/12/03 01:57:57;;;;;;;12.10;9.60;;;;;;;15.78;45.00;92316.41;4977818;28;20046;-89
2021/12/03 02:00:33;;;;;;;11.70;9.73;;;;;;;15.74;44.85;92314.00;4974024;28;20373;-88
2021/12/03 02:02:58;;;;;;;13.63;9.68;;;;;;;15.76;45.04;92316.22;5002966;28;20088;-87
2021/12/03 02:05:24;;;;;;;12.77;9.38;;;;;;;15.74;44.86;92318.72;4974877;28;20046;-87
2021/12/03 02:07:49;;;;;;;13.45;9.85;;;;;;;15.79;44.84;92319.88;4991209;28;20512;-87
2021/12/03 02:10:15;;;;;;;11.52;8.65;;;;;;;15.76;44.96;92319.66;4992742;28;20034;-88
2021/12/03 02:12:40;;;;;;;12.60;9.02;;;;;;;15.81;45.00;92318.09;4976639;28;20018;-88
2021/12/03 02:15:06;;;;;;;10.15;7.47;;;;;;;15.77;44.78;92323.13;4971072;28;20042;-88
2021/12/03 02:17:32;;;;;;;11.13;8.52;;;;;;;15.74;44.95;92324.91;5012597;28;20035;-91
2021/12/03 02:19:57;;;;;;;10.45;7.95;;;;;;;15.75;45.01;92341.97;4993470;23;20060;-88
2021/12/03 02:22:23;;;;;;;11.60;8.57;;;;;;;15.81;44.97;92339.16;5008699;28;20034;-91
2021/12/03 02:24:48;;;;;;;13.15;9.38;;;;;;;15.82;44.74;92343.34;5012576;28;20426;-87
2021/12/03 02:27:14;;;;;;;13.32;10.05;;;;;;;15.76;44.69;92346.91;4994783;28;20049;-92
2021/12/03 02:29:39;;;;;;;11.18;9.20;;;;;;;15.79;44.83;92352.59;4996404;28;20038;-87
2021/12/03 02:32:05;;;;;;;10.77;7.95;;;;;;;15.81;44.66;92353.50;4994432;28;20481;-88
2021/12/03 02:34:31;;;;;;;12.30;8.93;;;;;;;15.79;44.56;92344.41;4992871;28;20042;-87
2021/12/03 02:36:56;;;;;;;12.45;9.07;;;;;;;15.79;44.79;92342.41;4993041;28;20060;-87
2021/12/03 02:39:22;;;;;;;10.77;8.10;;;;;;;15.85;44.78;92342.31;4975307;28;20513;-88
2021/12/03 02:41:47;;;;;;;12.05;8.13;;;;;;;15.80;44.84;92351.31;5011610;28;20038;-87
2021/12/03 02:44:12;;;;;;;10.65;8.35;;;;;;;15.77;44.85;92350.38;4984302;23;20046;-88
2021/12/03 02:46:38;;;;;;;11.07;8.02;;;;;;;15.82;44.82;92360.44;4923011;28;20062;-87
2021/12/03 02:49:05;;;;;;;12.15;8.55;;;;;;;15.81;44.65;92355.50;4949975;28;20039;-87
2021/12/03 02:51:31;;;;;;;12.35;9.35;;;;;;;15.76;45.04;92360.53;4957412;28;20033;-87
2021/12/03 02:53:57;;;;;;;8.73;6.90;;;;;;;15.76;44.91;92359.81;4938098;28;20536;-88
2021/12/03 02:56:23;;;;;;;14.63;10.32;;;;;;;15.80;44.47;92364.94;4922333;28;20042;-86
2021/12/03 02:58:49;;;;;;;12.57;8.95;;;;;;;15.75;44.73;92366.50;4966155;28;20043;-88
2021/12/03 03:01:14;;;;;;;9.98;7.30;;;;;;;15.75;44.56;92369.22;4923497;28;20026;-87
2021/12/03 03:03:39;;;;;;;12.43;8.30;;;;;;;15.77;44.75;92377.63;4977716;28;20039;-88
2021/12/03 03:06:07;;;;;;;9.77;7.18;;;;;;;15.80;44.62;92392.19;4905169;29;20043;-87
2021/12/03 03:08:33;;;;;;;7.45;6.60;;;;;;;15.77;44.78;92391.97;4904821;29;20051;-87
2021/12/03 03:11:02;;;;;;;8.30;6.80;;;;;;;15.77;44.56;92396.69;4904277;29;20043;-87
2021/12/03 03:13:27;;;;;;;14.13;8.75;;;;;;;15.74;44.88;92395.00;4912961;29;20139;-87
2021/12/03 03:15:53;;;;;;;12.02;8.95;;;;;;;15.73;44.67;92394.25;4916411;29;20121;-88
2021/12/03 03:18:24;;;;;;;8.77;7.20;;;;;;;15.72;44.69;92392.78;4950034;28;20493;-88
2021/12/03 03:20:49;;;;;;;7.90;6.25;;;;;;;15.70;44.96;92389.84;4970665;28;20536;-88
2021/12/03 03:23:15;;;;;;;9.02;6.95;;;;;;;15.70;44.86;92387.13;4954349;28;20019;-88
2021/12/03 03:25:41;;;;;;;10.70;7.95;;;;;;;15.67;44.77;92385.44;4972367;28;20035;-88
2021/12/03 03:28:06;;;;;;;9.93;6.25;;;;;;;15.68;44.69;92392.34;4952671;28;20079;-88
2021/12/03 03:30:32;;;;;;;10.13;7.72;;;;;;;15.74;44.39;92395.75;4977697;28;20043;-88
2021/12/03 03:32:57;;;;;;;9.23;7.53;;;;;;;15.83;44.52;92397.31;4939224;28;20043;-87
2021/12/03 03:35:23;;;;;;;11.93;8.13;;;;;;;15.79;44.86;92398.91;4947067;23;20043;-88
2021/12/03 03:37:48;;;;;;;9.32;7.22;;;;;;;15.73;44.84;92397.00;4989717;28;20042;-88
2021/12/03 03:40:14;;;;;;;12.32;8.43;;;;;;;15.71;44.74;92399.50;4991975;28;20032;-87
2021/12/03 03:42:39;;;;;;;6.78;5.97;;;;;;;15.71;44.95;92401.47;4973580;28;20034;-87
2021/12/03 03:45:08;;;;;;;11.45;8.25;;;;;;;15.73;44.52;92405.16;4977869;28;20045;-88
2021/12/03 03:47:34;;;;;;;9.60;6.93;;;;;;;15.72;44.61;92413.84;4961653;28;20015;-88
2021/12/03 03:49:59;;;;;;;10.63;7.22;;;;;;;15.74;44.53;92406.63;4977348;28;20037;-87
2021/12/03 03:52:27;;;;;;;11.70;7.97;;;;;;;15.71;44.73;92412.38;4989079;28;20145;-92
2021/12/03 03:54:52;;;;;;;8.32;6.63;;;;;;;15.70;45.55;92416.34;4940077;28;20164;-88
2021/12/03 03:59:43;;;;;;;8.40;6.45;;;;;;;15.72;44.18;92422.03;5000216;23;20092;-87
2021/12/03 04:02:08;;;;;;;9.68;7.50;;;;;;;15.71;44.27;92424.00;4968737;28;20042;-87
2021/12/03 04:04:34;;;;;;;9.52;6.40;;;;;;;15.79;44.38;92423.44;4987820;28;20077;-87
2021/12/03 04:06:59;;;;;;;12.30;8.02;;;;;;;15.71;44.41;92418.56;5000323;28;20452;-88
2021/12/03 04:09:24;;;;;;;11.85;7.97;;;;;;;15.77;44.25;92421.22;4981266;28;20046;-93
2021/12/03 04:11:50;;;;;;;9.07;5.97;;;;;;;15.74;44.73;92425.72;4996575;28;20050;-87
2021/12/03 04:14:15;;;;;;;9.50;7.18;;;;;;;15.74;44.53;92433.16;4963866;28;20038;-87
2021/12/03 04:16:41;;;;;;;11.13;7.13;;;;;;;15.68;44.54;92438.66;4999522;28;20038;-88
2021/12/03 04:19:06;;;;;;;8.70;6.00;;;;;;;15.69;44.34;92450.31;4997239;28;20081;-88
2021/12/03 04:21:31;;;;;;;10.75;7.45;;;;;;;15.72;44.48;92455.47;4980477;28;20453;-87
2021/12/03 04:23:57;;;;;;;8.77;6.28;;;;;;;15.74;44.57;92461.13;4995923;28;20038;-87
2021/12/03 04:26:23;;;;;;;9.98;6.43;;;;;;;15.72;44.47;92457.44;4978799;28;20030;-87
2021/12/03 04:28:48;;;;;;;9.30;5.75;;;;;;;15.70;44.34;92468.13;5014018;28;20387;-88
2021/12/03 04:31:14;;;;;;;11.60;7.60;;;;;;;15.71;44.27;92477.78;4983123;28;20042;-88
2021/12/03 04:33:39;;;;;;;7.93;5.90;;;;;;;15.74;44.47;92474.75;4984731;28;20038;-88
2021/12/03 04:36:05;;;;;;;10.75;7.45;;;;;;;15.67;44.14;92486.22;5013521;23;20026;-88
2021/12/03 04:38:30;;;;;;;10.07;7.43;;;;;;;15.70;44.53;92487.19;4980860;28;20038;-87
2021/12/03 04:40:56;;;;;;;14.15;7.75;;;;;;;15.71;44.16;92486.69;5010967;28;20050;-94
2021/12/03 04:43:21;;;;;;;7.55;5.45;;;;;;;15.74;44.03;92493.81;4977360;28;20042;-88
2021/12/03 04:45:47;;;;;;;8.55;6.65;;;;;;;15.70;44.14;92500.81;4960339;28;20045;-88
2021/12/03 04:48:12;;;;;;;9.25;6.78;;;;;;;15.70;44.08;92496.09;4980111;28;20014;-88
2021/12/03 04:50:39;;;;;;;10.75;7.35;;;;;;;15.70;44.21;92515.19;4976507;28;20049;-87
2021/12/03 04:53:05;;;;;;;11.10;7.55;;;;;;;15.76;44.00;92512.38;4959772;28;20070;-89
2021/12/03 04:55:30;;;;;;;7.47;5.75;;;;;;;15.80;43.94;92514.81;4961458;28;20167;-88
2021/12/03 04:57:55;;;;;;;9.85;6.45;;;;;;;15.79;43.88;92519.53;4966318;28;20030;-87
2021/12/03 05:00:36;;;;;;;8.38;6.38;;;;;;;15.74;44.13;92517.63;4964543;28;20076;-87
2021/12/03 05:03:01;;;;;;;7.28;5.78;;;;;;;15.74;43.98;92521.06;4963359;28;20386;-90
2021/12/03 05:05:31;;;;;;;9.93;7.40;;;;;;;15.75;43.93;92524.53;5013256;28;20105;-87
2021/12/03 05:08:01;;;;;;;9.98;7.00;;;;;;;15.72;43.92;92533.75;4964111;28;20149;-88
2021/12/03 05:10:32;;;;;;;8.23;6.60;;;;;;;15.72;44.22;92544.63;4995866;28;20057;-87
2021/12/03 05:13:09;;;;;;;10.68;7.28;;;;;;;15.74;44.34;92542.13;4977768;28;20042;-87
2021/12/03 05:15:35;;;;;;;8.20;6.07;;;;;;;15.73;43.98;92540.66;4962553;28;20038;-87
2021/12/03 05:18:00;;;;;;;13.20;9.05;;;;;;;15.82;43.94;92550.44;4968142;28;20440;-87
2021/12/03 05:20:26;;;;;;;7.75;5.38;;;;;;;15.75;44.18;92549.06;4979796;28;20034;-88
2021/12/03 05:22:53;;;;;;;18.17;10.35;;;;;;;15.79;43.92;92556.94;4977542;28;20092;-88
2021/12/03 05:25:27;;;;;;;7.72;5.35;;;;;;;15.72;44.21;92566.44;4995710;28;20489;-89
2021/12/03 05:27:53;;;;;;;7.68;5.55;;;;;;;15.71;43.58;92564.97;5012493;28;20039;-88
2021/12/03 05:30:18;;;;;;;13.57;8.57;;;;;;;15.81;44.14;92565.31;4965080;28;20092;-89
2021/12/03 05:32:43;;;;;;;8.73;7.00;;;;;;;15.71;43.94;92562.97;5013161;28;20040;-89
2021/12/03 05:35:09;;;;;;;8.60;5.85;;;;;;;15.77;43.86;92571.09;4966565;28;20029;-91
2021/12/03 05:37:34;;;;;;;10.13;6.90;;;;;;;15.70;43.89;92575.13;5019630;23;20410;-87
2021/12/03 05:40:00;;;;;;;7.65;6.15;;;;;;;15.67;44.11;92573.41;4979040;28;20066;-88
2021/12/03 05:42:25;;;;;;;6.28;4.32;;;;;;;15.71;44.29;92579.31;4995663;28;20052;-88
2021/12/03 05:44:58;;;;;;;6.60;5.13;;;;;;;15.71;43.99;92587.50;4994428;28;20038;-87
2021/12/03 05:47:23;;;;;;;8.15;5.72;;;;;;;15.74;44.20;92583.75;5011637;28;20038;-88
2021/12/03 05:49:49;;;;;;;6.35;4.78;;;;;;;15.72;43.96;92582.78;4973975;28;20038;-87
2021/12/03 05:52:14;;;;;;;8.68;6.30;;;;;;;15.81;44.01;92589.84;4994321;28;20026;-88
2021/12/03 05:54:39;;;;;;;5.93;4.72;;;;;;;15.69;44.38;92591.97;4976634;28;20018;-88
2021/12/03 05:57:05;;;;;;;6.57;4.85;;;;;;;15.72;44.13;92607.31;4985042;23;20137;-86
2021/12/03 05:59:30;;;;;;;7.63;5.03;;;;;;;15.71;44.30;92605.81;4992029;28;20038;-89
2021/12/03 06:01:56;;;;;;;7.20;5.70;;;;;;;15.75;43.92;92604.28;5002864;23;20050;-87
2021/12/03 06:04:21;;;;;;;7.60;4.93;;;;;;;15.75;44.02;92609.75;4971117;23;20065;-87
2021/12/03 06:06:47;;;;;;;7.68;5.43;;;;;;;15.74;44.01;92619.16;4996936;28;20103;-88
2021/12/03 06:09:12;;;;;;;6.68;4.85;;;;;;;15.75;44.30;92604.28;5012935;28;20021;-87
2021/12/03 06:11:37;;;;;;;9.00;5.35;;;;;;;15.78;43.72;92621.59;4978761;28;20083;-88
2021/12/03 06:14:03;;;;;;;7.75;6.03;;;;;;;15.72;44.21;92623.66;5001517;28;20025;-87
2021/12/03 06:16:28;;;;;;;5.15;4.03;;;;;;;15.73;43.90;92636.75;4998694;28;20034;-87
2021/12/03 06:18:57;;;;;;;6.40;4.30;;;;;;;15.72;44.06;92640.75;5000882;28;20037;-88
2021/12/03 06:21:22;;;;;;;8.30;4.38;;;;;;;15.70;44.39;92648.69;4999472;28;20073;-87
2021/12/03 06:23:47;;;;;;;8.15;6.15;;;;;;;15.74;43.84;92648.41;4981145;28;20465;-87
2021/12/03 06:26:13;;;;;;;11.75;5.80;;;;;;;15.74;43.91;92654.59;4984893;28;20061;-88
2021/12/03 06:28:39;;;;;;;13.80;6.93;;;;;;;15.72;43.95;92659.81;4980779;28;20052;-87
2021/12/03 06:31:05;;;;;;;21.65;10.73;;;;;;;15.70;43.85;92667.00;5002869;28;20050;-87
2021/12/03 06:33:30;;;;;;;13.98;8.75;;;;;;;15.76;44.25;92665.72;4997493;28;20041;-86
2021/12/03 06:35:56;;;;;;;19.90;9.63;;;;;;;15.74;43.53;92667.47;4984370;28;20034;-87
2021/12/03 06:38:21;;;;;;;31.77;15.32;;;;;;;15.77;43.64;92669.91;4981309;28;20049;-93
2021/12/03 06:40:47;;;;;;;29.70;12.63;;;;;;;15.78;43.80;92673.38;4998101;28;20037;-89
2021/12/03 06:43:12;;;;;;;52.28;19.02;;;;;;;15.79;43.78;92679.56;4999775;23;20077;-87
2021/12/03 06:45:38;;;;;;;24.85;11.90;;;;;;;15.73;43.93;92666.75;4947664;28;20042;-87
2021/12/03 06:48:04;;;;;;;20.15;11.35;;;;;;;15.75;43.92;92682.56;4952323;28;20031;-88
2021/12/03 06:50:31;;;;;;;28.02;13.10;;;;;;;15.75;43.75;92683.31;4942453;28;20467;-88
2021/12/03 06:53:05;;;;;;;38.60;15.55;;;;;;;15.79;44.18;92680.31;4958628;28;20129;-88
2021/12/03 06:55:38;;;;;;;42.28;19.23;;;;;;;15.74;43.93;92694.72;4956970;28;20042;-87
2021/12/03 06:58:03;;;;;;;33.03;17.38;;;;;;;15.74;43.96;92694.72;4960306;28;20046;-88
2021/12/03 07:00:30;;;;;;;46.90;22.70;;;;;;;15.74;43.74;92700.91;4958530;28;20035;-88
2021/12/03 07:02:55;;;;;;;40.90;22.27;;;;;;;15.79;43.74;92701.38;4948814;28;20038;-88
2021/12/03 07:05:21;;;;;;;56.97;24.15;;;;;;;15.76;43.85;92703.13;4935868;28;20401;-93
2021/12/03 07:07:47;;;;;;;49.95;24.75;;;;;;;15.80;43.77;92708.31;4954101;28;20039;-87
2021/12/03 07:10:12;;;;;;;49.00;25.55;;;;;;;15.76;44.15;92701.16;4954140;28;20043;-88
2021/12/03 07:12:38;;;;;;;56.13;26.13;;;;;;;15.74;43.76;92716.53;4937599;28;20054;-87
2021/12/03 07:15:04;;;;;;;52.17;26.27;;;;;;;15.74;44.07;92720.00;4944213;28;20039;-88
2021/12/03 07:17:32;;;;;;;57.38;26.35;;;;;;;15.71;43.84;92718.28;4949118;28;20034;-88
2021/12/03 07:19:58;;;;;;;44.60;24.75;;;;;;;15.76;43.70;92725.66;4954755;28;20090;-90
2021/12/03 07:22:24;;;;;;;44.97;24.50;;;;;;;15.73;43.71;92729.41;4936807;28;20039;-88
2021/12/03 07:24:50;;;;;;;48.95;23.58;;;;;;;15.74;43.66;92730.16;4937690;28;20031;-88
2021/12/03 07:27:15;;;;;;;44.55;24.50;;;;;;;15.77;43.72;92734.59;4936708;28;20049;-88
2021/12/03 07:29:46;;;;;;;48.08;23.65;;;;;;;15.74;43.87;92741.78;4934380;28;20517;-87
2021/12/03 07:32:12;;;;;;;48.75;24.20;;;;;;;15.74;44.34;92741.03;4934430;28;20126;-88
2021/12/03 07:34:37;;;;;;;49.83;22.40;;;;;;;15.76;44.09;92744.75;4934790;29;20046;-88
2021/12/03 07:37:03;;;;;;;38.28;21.15;;;;;;;15.74;43.85;92749.22;4949174;28;20039;-87
2021/12/03 07:39:29;;;;;;;33.03;19.60;;;;;;;15.72;43.72;92746.25;4953085;28;20043;-88
2021/12/03 07:41:54;;;;;;;45.30;20.58;;;;;;;15.72;43.95;92751.72;4953601;28;20244;-90
2021/12/03 07:44:19;;;;;;;37.25;20.65;;;;;;;15.73;42.84;92762.09;4923485;28;20048;-89
2021/12/03 07:46:45;;;;;;;37.78;15.98;;;;;;;15.59;38.88;92757.03;4958011;28;20043;-88
2021/12/03 07:49:10;;;;;;;100.53;66.63;;;;;;;15.66;39.72;92770.09;4973652;28;20119;-88
2021/12/03 07:51:36;;;;;;;116.85;72.18;;;;;;;15.79;39.70;92772.22;4963019;28;20042;-91
2021/12/03 07:54:01;;;;;;;36.42;17.00;;;;;;;15.75;39.39;92767.06;4963046;28;20047;-88
2021/12/03 07:56:26;;;;;;;32.47;17.45;;;;;;;15.77;40.25;92764.56;4957310;28;20046;-88
2021/12/03 07:58:52;;;;;;;32.25;17.00;;;;;;;15.88;41.51;92775.34;4963680;28;20027;-92
2021/12/03 08:01:18;;;;;;;31.20;17.13;;;;;;;15.93;42.25;92782.75;4962050;28;20719;-91
2021/12/03 08:03:44;;;;;;;27.00;16.13;;;;;;;15.81;42.11;92780.59;4969180;28;20051;-91
2021/12/03 08:06:10;;;;;;;27.02;15.65;;;;;;;15.83;42.10;92787.03;4945619;28;20045;-89
2021/12/03 08:08:39;;;;;;;28.83;14.82;;;;;;;15.89;42.16;92792.44;4949545;28;20043;-88
2021/12/03 08:11:05;;;;;;;26.02;14.50;;;;;;;15.80;42.11;92796.25;4972022;28;20027;-87
2021/12/03 08:13:30;;;;;;;28.38;15.55;;;;;;;15.77;42.55;92794.53;4965259;23;20039;-88
2021/12/03 08:15:56;;;;;;;27.40;15.77;;;;;;;15.80;42.48;92798.97;4992522;28;20011;-87
2021/12/03 08:18:23;;;;;;;23.90;13.43;;;;;;;15.80;42.59;92809.13;4985024;28;20054;-94
2021/12/03 08:20:49;;;;;;;32.80;14.07;;;;;;;15.76;42.41;92801.22;5007623;23;20532;-88
2021/12/03 08:23:14;;;;;;;29.85;13.25;;;;;;;15.81;42.24;92799.69;5037231;23;20038;-88
2021/12/03 08:25:41;;;;;;;48.55;15.27;;;;;;;15.84;42.37;92810.31;4990808;28;20535;-89
2021/12/03 08:28:07;;;;;;;39.22;16.02;;;;;;;15.79;42.86;92813.84;5009399;28;20022;-88
2021/12/03 08:30:32;;;;;;;29.30;15.07;;;;;;;15.80;42.50;92809.13;5010759;28;20013;-88
2021/12/03 08:32:58;;;;;;;31.98;12.98;;;;;;;15.78;42.57;92801.47;5030598;28;20061;-89
2021/12/03 08:35:32;;;;;;;26.25;11.75;;;;;;;15.80;42.15;92798.22;5025642;28;20046;-89
2021/12/03 08:37:58;;;;;;;28.17;13.18;;;;;;;15.85;42.32;92805.59;5012991;23;20563;-90
2021/12/03 08:40:24;;;;;;;33.97;13.55;;;;;;;15.85;42.42;92813.78;5000104;28;20038;-91
2021/12/03 08:42:49;;;;;;;26.67;12.15;;;;;;;15.85;42.23;92814.50;4999237;28;20137;-89
2021/12/03 08:47:40;;;;;;;18.05;11.18;;;;;;;15.85;42.34;92827.41;5005420;23;20102;-89
2021/12/03 08:50:12;;;;;;;35.45;12.50;;;;;;;15.83;42.11;92835.34;4974363;28;20046;-91
2021/12/03 08:53:06;;;;;;;22.30;11.13;;;;;;;15.81;42.35;92835.13;4960901;28;20034;-88
2021/12/03 08:55:32;;;;;;;32.38;11.93;;;;;;;15.83;42.51;92835.34;4971083;28;20544;-95
2021/12/03 08:57:57;;;;;;;22.88;10.82;;;;;;;15.84;42.43;92836.81;4975967;28;20042;-90
2021/12/03 09:00:22;;;;;;;36.85;14.02;;;;;;;15.85;42.57;92833.59;4975071;28;20070;-89
2021/12/03 09:02:48;;;;;;;32.42;12.52;;;;;;;15.86;42.35;92832.34;4942452;28;20027;-92
2021/12/03 09:05:14;;;;;;;48.60;15.57;;;;;;;15.85;42.36;92832.84;4971669;28;20082;-89
2021/12/03 09:07:39;;;;;;;160.18;30.85;;;;;;;15.85;42.69;92838.31;4953460;28;20122;-88
2021/12/03 09:10:06;;;;;;;169.27;35.53;;;;;;;15.81;42.65;92840.56;4952671;28;20074;-90
2021/12/03 09:12:31;;;;;;;95.35;21.88;;;;;;;15.80;42.46;92833.66;4937429;28;20082;-89
2021/12/03 09:15:00;;;;;;;63.45;19.30;;;;;;;15.86;42.51;92851.44;4965489;28;20586;-89
2021/12/03 09:17:36;;;;;;;66.60;18.23;;;;;;;15.92;42.52;92851.38;4973895;28;20035;-90
2021/12/03 09:22:45;;;;;;;46.88;17.90;;;;;;;15.90;42.61;92851.16;4957819;28;20035;-89
2021/12/03 09:25:15;;;;;;;52.00;17.88;;;;;;;15.92;42.54;92848.66;4954877;28;20569;-89
2021/12/03 09:27:40;;;;;;;61.80;20.60;;;;;;;15.88;42.61;92859.09;4939816;28;20039;-88
2021/12/03 09:30:07;;;;;;;169.70;36.45;;;;;;;15.89;42.85;92855.88;4937082;28;20043;-89
2021/12/03 09:32:33;;;;;;;212.30;41.58;;;;;;;15.85;42.52;92858.13;4971231;28;20050;-88
2021/12/03 09:34:59;;;;;;;267.55;55.10;;;;;;;15.87;42.64;92852.16;4952517;28;20553;-89
2021/12/03 09:37:25;;;;;;;162.45;38.90;;;;;;;15.85;42.67;92847.22;4954968;28;20042;-88
2021/12/03 09:39:51;;;;;;;136.02;37.92;;;;;;;15.85;42.90;92858.13;4956319;28;20064;-89
2021/12/03 09:42:18;;;;;;;123.80;35.83;;;;;;;15.86;42.64;92843.25;4955299;28;20081;-89
2021/12/03 09:44:45;;;;;;;124.88;41.47;;;;;;;15.99;42.90;92843.41;4972632;28;20442;-89
2021/12/03 09:47:11;;;;;;;101.85;32.42;;;;;;;15.89;42.77;92855.88;4955988;28;20516;-90
2021/12/03 09:49:39;;;;;;;99.55;32.50;;;;;;;15.86;42.85;92847.97;4953540;28;20042;-90
2021/12/03 09:52:22;;;;;;;92.30;30.33;;;;;;;15.91;42.76;92844.47;4940745;28;20042;-89
2021/12/03 09:54:51;;;;;;;94.70;32.83;;;;;;;15.87;42.77;92847.47;4959236;28;20403;-89
2021/12/03 09:57:27;;;;;;;100.78;33.20;;;;;;;15.84;42.85;92831.38;4952357;28;20280;-92
2021/12/03 10:02:30;;;;;;;88.78;32.35;;;;;;;15.92;42.55;92843.97;4973663;28;20031;-88
2021/12/03 10:05:28;;;;;;;81.55;33.05;;;;;;;15.99;42.63;92837.22;4958476;28;20043;-88
2021/12/03 10:13:13;;;;;;;107.05;37.65;;;;;;;15.95;42.45;92855.84;4983462;28;20031;-89
2021/12/03 10:15:56;;;;;;;84.10;35.90;;;;;;;15.91;42.62;92842.47;4970346;28;20062;-88
2021/12/03 10:18:33;;;;;;;112.47;40.95;;;;;;;15.92;42.65;92857.59;4972069;28;20485;-88
2021/12/03 10:21:14;;;;;;;74.72;32.33;;;;;;;15.97;42.64;92856.81;4959632;28;20560;-89
2021/12/03 10:27:04;;;;;;;93.95;34.80;;;;;;;15.93;42.49;92844.69;4988724;28;20065;-90
2021/12/03 10:29:42;;;;;;;98.75;37.22;;;;;;;15.92;42.47;92854.84;4955142;28;20667;-89
2021/12/03 10:35:10;;;;;;;100.25;43.40;;;;;;;15.88;42.65;92854.38;4983096;28;20066;-90
2021/12/03 10:40:50;;;;;;;85.88;36.85;;;;;;;15.90;42.77;92856.59;4982633;28;20089;-89
2021/12/03 10:46:20;;;;;;;85.47;35.50;;;;;;;15.97;42.89;92856.81;4989258;28;20042;-91
2021/12/03 10:49:10;;;;;;;119.57;41.67;;;;;;;15.90;42.79;92853.88;4960455;28;20050;-89
2021/12/03 10:54:20;;;;;;;93.43;39.50;;;;;;;15.88;42.77;92865.28;4990513;28;20611;-88
2021/12/03 10:57:00;;;;;;;81.32;35.30;;;;;;;15.95;42.52;92861.28;4989925;28;20034;-89
2021/12/03 11:19:27;;;;;;;57.50;27.08;;;;;;;15.96;42.86;92866.22;4972589;28;20054;-89
2021/12/03 11:38:36;;;;;;;52.92;23.15;;;;;;;15.92;42.27;92854.13;4994404;28;20088;-90
2021/12/03 12:04:28;;;;;;;33.65;16.38;;;;;;;15.88;42.71;92846.22;4955198;28;20456;-90
2021/12/03 12:14:25;;;;;;;29.00;16.13;;;;;;;15.93;42.33;92864.50;4913140;28;20057;-89
2021/12/03 12:27:06;;;;;;;23.08;13.55;;;;;;;15.90;42.68;92859.34;4949472;29;20289;-90
2021/12/03 13:11:04;;;;;;;11.65;8.23;;;;;;;15.90;42.46;92851.16;4954877;28;20410;-91
2021/12/03 13:22:34;;;;;;;14.18;7.93;;;;;;;15.91;42.21;92864.28;4936176;29;20138;-89
2021/12/03 14:08:02;;;;;;;22.50;14.18;;;;;;;15.83;39.82;92874.25;4975611;28;20038;-88
2021/12/03 14:35:39;;;;;;;10.98;7.93;;;;;;;15.94;41.37;92897.97;4914998;29;20051;-90
2021/12/03 14:51:07;;;;;;;13.23;7.53;;;;;;;15.94;41.58;92895.97;4882087;29;20132;-89
2021/12/03 14:53:44;;;;;;;12.15;7.13;;;;;;;15.90;41.70;92900.22;4897459;29;20111;-88
2021/12/03 14:56:12;;;;;;;10.27;7.25;;;;;;;15.93;41.66;92899.94;4895732;29;20047;-88
2021/12/03 15:04:05;;;;;;;10.73;6.63;;;;;;;15.97;41.40;92902.41;4935243;29;20466;-88
2021/12/03 15:09:01;;;;;;;8.23;6.03;;;;;;;15.94;41.57;92895.25;4995334;28;19953;-90
2021/12/03 15:25:11;;;;;;;10.02;5.10;;;;;;;15.89;41.34;92896.00;4973424;28;20604;-92
2021/12/03 15:30:28;;;;;;;5.53;4.55;;;;;;;15.90;41.69;92902.94;4973343;28;20038;-88
2021/12/03 15:35:51;;;;;;;5.53;4.43;;;;;;;15.96;41.45;92900.94;4972441;28;20140;-89
2021/12/03 15:41:24;;;;;;;5.85;4.55;;;;;;;15.90;41.61;92890.06;4973436;28;20061;-89
2021/12/03 16:08:04;;;;;;;4.40;3.10;;;;;;;15.86;41.44;92903.22;4975935;28;20073;-88
2021/12/03 16:10:34;;;;;;;3.95;3.17;;;;;;;15.89;41.47;92901.47;4957316;28;20564;-91
2021/12/03 16:13:11;;;;;;;5.07;3.10;;;;;;;15.83;41.84;92898.78;4959391;28;20042;-88
2021/12/03 16:23:24;;;;;;;4.60;3.53;;;;;;;15.89;41.57;92910.38;4955941;28;20034;-90